Time;durP1;ratioP1;P1;durP2;ratioP2;P2;SDS_P1;SDS_P2;PMS_P1;PMS_P2;Temp;Humidity;BMP_temperature;BMP_pressure;BME280_temperature;BME280_humidity;BME280_pressure;Samples;Min_cycle;Max_cycle;Signal;HPM_P1;HPM_P2
2021/06/23 00:00:38;;;;;;;20.25;12.07;;;13.00;99.90;;;12.35;100.00;101656.31;4135114;28;20038;-67
2021/06/23 00:02:39;;;;;;;20.25;10.77;;;13.10;99.90;;;12.38;100.00;101648.09;4135237;28;20482;-67
2021/06/23 00:04:42;;;;;;;18.60;11.73;;;13.10;99.90;;;12.12;100.00;101639.97;4135238;28;20025;-67
2021/06/23 00:06:43;;;;;;;21.45;11.77;;;13.10;99.90;;;12.32;100.00;101651.31;4134062;28;20054;-67
2021/06/23 00:08:44;;;;;;;14.95;10.82;;;13.10;99.90;;;12.23;100.00;101644.25;4133498;28;20138;-67
2021/06/23 00:10:47;;;;;;;17.70;12.48;;;13.10;99.90;;;12.43;100.00;101653.75;4134077;28;20062;-67
2021/06/23 00:12:51;;;;;;;21.60;13.05;;;13.10;99.90;;;12.21;100.00;101649.69;4136257;28;20042;-67
2021/06/23 00:14:52;;;;;;;22.95;13.43;;;13.10;99.90;;;12.33;100.00;101656.47;4138290;28;20529;-67
2021/06/23 00:16:54;;;;;;;19.65;11.57;;;13.10;99.90;;;12.39;100.00;101655.06;4137916;28;20029;-67
2021/06/23 00:18:54;;;;;;;16.98;12.55;;;13.10;99.90;;;12.39;100.00;101647.13;4137141;28;20106;-67
2021/06/23 00:20:56;;;;;;;22.88;13.90;;;13.10;99.90;;;12.42;100.00;101654.75;4138066;28;20038;-67
2021/06/23 00:22:57;;;;;;;22.75;11.82;;;13.20;99.90;;;12.41;100.00;101650.44;4137644;28;20038;-67
2021/06/23 00:24:58;;;;;;;20.33;11.90;;;13.20;99.90;;;12.48;100.00;101655.03;4152706;28;20022;-67
2021/06/23 00:26:59;;;;;;;21.85;13.60;;;13.20;99.90;;;12.41;100.00;101645.16;4138038;28;20033;-67
2021/06/23 00:29:01;;;;;;;24.58;11.80;;;13.20;99.90;;;12.42;100.00;101652.13;4136772;28;20023;-67
2021/06/23 00:31:02;;;;;;;18.92;12.13;;;13.20;99.90;;;12.47;100.00;101655.16;4137972;28;20030;-67
2021/06/23 00:33:10;;;;;;;16.98;12.02;;;13.20;99.90;;;12.45;100.00;101657.13;4137734;28;20141;-67
2021/06/23 00:35:12;;;;;;;17.80;13.40;;;13.20;99.90;;;12.45;100.00;101663.25;4137978;28;20034;-67
2021/06/23 00:37:14;;;;;;;20.88;13.15;;;13.20;99.90;;;12.63;100.00;101658.00;4152752;28;20533;-67
2021/06/23 00:39:15;;;;;;;16.98;11.55;;;13.20;99.90;;;12.54;99.70;101651.78;4137483;28;20521;-67
2021/06/23 00:41:18;;;;;;;26.92;14.05;;;13.30;99.90;;;12.37;99.86;101657.81;4137496;28;20057;-67
2021/06/23 00:43:19;;;;;;;19.38;12.85;;;13.20;99.90;;;12.48;100.00;101651.53;4120426;28;20065;-67
2021/06/23 00:45:21;;;;;;;18.52;12.23;;;13.20;99.90;;;12.42;100.00;101652.13;4137732;28;20022;-67
2021/06/23 00:47:26;;;;;;;17.85;11.18;;;13.20;99.90;;;12.52;100.00;101639.66;4136431;28;20105;-67
2021/06/23 00:49:33;;;;;;;19.25;12.55;;;13.20;99.90;;;12.65;99.20;101656.03;4136325;28;20026;-67
2021/06/23 00:51:35;;;;;;;21.67;12.63;;;13.20;99.90;;;12.59;99.44;101640.75;4136482;28;20125;-67
2021/06/23 00:53:36;;;;;;;22.13;12.52;;;13.20;99.90;;;12.51;98.54;101654.72;4136159;28;20073;-67
2021/06/23 00:55:37;;;;;;;20.10;12.57;;;13.30;99.90;;;12.31;99.90;101645.19;4136452;28;20442;-67
2021/06/23 00:57:39;;;;;;;20.98;12.60;;;13.30;99.90;;;12.54;99.72;101650.94;4136579;28;20548;-68
2021/06/23 00:59:41;;;;;;;18.85;10.93;;;13.30;99.90;;;12.30;99.62;101653.28;4136279;28;20030;-67
2021/06/23 01:01:43;;;;;;;19.05;11.65;;;13.20;99.90;;;12.29;99.28;101647.16;4136435;28;20023;-69
2021/06/23 01:03:45;;;;;;;22.25;11.93;;;13.20;99.90;;;12.46;98.91;101648.19;4136501;28;20077;-67
2021/06/23 01:05:46;;;;;;;16.02;11.02;;;13.20;99.90;;;12.30;99.28;101632.09;4136361;28;20053;-67
2021/06/23 01:07:48;;;;;;;18.45;10.80;;;13.20;99.90;;;12.30;98.84;101653.28;4137270;28;20030;-67
2021/06/23 01:09:50;;;;;;;19.42;10.13;;;13.20;99.90;;;12.43;99.00;101648.47;4137338;28;20026;-67
2021/06/23 01:12:25;;;;;;;19.00;11.55;;;13.20;99.90;;;12.42;99.64;101660.06;4136244;28;20022;-67
2021/06/23 01:14:28;;;;;;;18.67;10.18;;;13.20;99.90;;;12.02;99.82;101640.00;4136108;28;20034;-67
2021/06/23 01:16:34;;;;;;;18.30;11.10;;;13.10;99.90;;;12.26;99.67;101649.25;4120200;28;20090;-67
2021/06/23 01:18:38;;;;;;;16.05;11.20;;;13.10;99.90;;;12.20;98.95;101654.13;4137210;28;20026;-67
2021/06/23 01:20:42;;;;;;;21.90;10.80;;;13.10;99.90;;;12.30;98.74;101653.28;4136278;28;20054;-68
2021/06/23 01:22:45;;;;;;;14.50;10.43;;;13.10;99.90;;;12.37;98.68;101654.34;4136845;28;20046;-66
2021/06/23 01:24:46;;;;;;;15.70;10.13;;;13.20;99.90;;;12.29;98.25;101651.59;4136489;28;20061;-66
2021/06/23 01:26:47;;;;;;;16.90;11.35;;;13.10;99.90;;;12.41;98.18;101656.56;4168548;28;20026;-68
2021/06/23 01:28:48;;;;;;;16.75;11.13;;;13.10;99.90;;;12.37;97.79;101655.19;4137269;28;20393;-66
2021/06/23 01:30:49;;;;;;;19.30;10.50;;;13.10;99.90;;;12.38;97.45;101661.31;4135952;28;20038;-66
2021/06/23 01:32:50;;;;;;;14.48;9.57;;;13.10;99.90;;;12.34;97.36;101652.81;4135787;28;20030;-66
2021/06/23 01:34:51;;;;;;;12.88;9.65;;;13.10;99.90;;;12.46;96.85;101656.13;4135746;28;20042;-66
2021/06/23 01:36:52;;;;;;;21.73;10.15;;;13.20;99.90;;;12.37;96.44;101659.63;4137200;28;20027;-66
2021/06/23 01:38:53;;;;;;;16.92;10.07;;;13.10;99.90;;;12.53;95.87;101650.09;4136712;28;20065;-66
2021/06/23 01:40:54;;;;;;;16.02;9.70;;;13.10;99.90;;;12.57;95.54;101663.88;4136860;28;20565;-66
2021/06/23 01:42:55;;;;;;;15.07;9.68;;;13.20;99.90;;;12.56;94.22;101654.28;4136545;28;20061;-68
2021/06/23 01:45:00;;;;;;;13.77;10.07;;;13.30;99.90;;;12.44;95.13;101655.44;4136936;28;20030;-68
2021/06/23 01:47:02;;;;;;;14.32;9.15;;;13.20;99.90;;;12.49;94.91;101661.13;4136833;28;20555;-69
2021/06/23 01:49:04;;;;;;;16.77;10.50;;;13.30;99.90;;;12.35;95.15;101656.31;4135618;28;20081;-69
2021/06/23 01:51:05;;;;;;;20.48;10.93;;;13.20;99.90;;;12.40;95.12;101656.69;4135447;28;20022;-68
2021/06/23 01:53:06;;;;;;;18.00;10.70;;;13.20;99.90;;;12.30;95.49;101666.50;4135289;28;20045;-68
2021/06/23 01:55:08;;;;;;;15.18;9.18;;;13.20;99.90;;;12.41;94.79;101671.59;4135449;28;20041;-68
2021/06/23 01:57:12;;;;;;;14.82;9.82;;;13.10;99.90;;;12.29;95.01;101659.53;4136572;28;20026;-69
2021/06/23 01:59:14;;;;;;;13.80;9.00;;;13.10;99.90;;;12.44;94.95;101661.56;4135310;28;20034;-68
2021/06/23 02:01:47;;;;;;;13.27;9.43;;;13.10;99.90;;;12.25;95.35;101663.44;4135441;28;20034;-68
2021/06/23 02:04:04;;;;;;;15.25;8.68;;;13.20;99.90;;;12.38;95.23;101656.84;4136500;28;20030;-68
2021/06/23 02:06:15;;;;;;;16.83;10.13;;;13.10;99.90;;;12.34;94.01;101659.94;4119919;28;20027;-68
2021/06/23 02:08:47;;;;;;;13.68;9.23;;;13.20;99.90;;;12.34;94.37;101665.22;4135013;28;20030;-68
2021/06/23 02:10:53;;;;;;;17.27;10.40;;;13.10;99.90;;;12.39;95.16;101663.00;4136558;28;20065;-68
2021/06/23 02:13:12;;;;;;;13.65;8.40;;;13.10;99.90;;;12.37;94.91;101670.22;4136404;28;20556;-68
2021/06/23 02:15:13;;;;;;;14.90;9.85;;;13.10;99.90;;;12.41;94.51;101666.31;4136198;28;20041;-68
2021/06/23 02:17:14;;;;;;;14.68;9.05;;;13.10;99.90;;;12.41;94.09;101658.38;4118940;28;20031;-68
2021/06/23 02:19:16;;;;;;;14.57;9.10;;;13.20;99.90;;;12.37;94.70;101659.63;4135196;28;20030;-68
2021/06/23 02:21:18;;;;;;;16.25;9.15;;;13.20;99.90;;;12.19;94.36;101659.56;4135142;28;20522;-68
2021/06/23 02:23:21;;;;;;;22.70;9.80;;;13.10;99.90;;;12.23;94.45;101655.66;4134565;28;20031;-68
2021/06/23 02:25:22;;;;;;;14.38;8.90;;;13.10;99.90;;;12.35;94.34;101658.97;4167514;28;20548;-68
2021/06/23 02:27:24;;;;;;;15.15;9.77;;;13.10;99.90;;;12.11;95.17;101662.09;4151164;28;20041;-68
2021/06/23 02:29:25;;;;;;;18.90;9.52;;;13.00;99.90;;;12.25;94.45;101652.84;4162199;28;20080;-68
2021/06/23 02:31:28;;;;;;;14.68;8.02;;;13.00;99.90;;;12.26;94.70;101660.66;4134875;28;20103;-68
2021/06/23 02:33:30;;;;;;;13.77;8.77;;;13.00;99.90;;;12.08;94.16;101643.88;4135174;28;20030;-68
2021/06/23 02:35:31;;;;;;;14.57;9.07;;;13.00;99.90;;;12.33;93.82;101663.56;4134693;28;20038;-68
2021/06/23 02:37:33;;;;;;;12.40;8.30;;;13.00;99.90;;;12.16;94.09;101660.69;4134240;28;20089;-68
2021/06/23 02:39:35;;;;;;;15.70;8.40;;;13.00;99.90;;;12.11;93.36;101639.13;4134440;28;20035;-68
2021/06/23 02:41:37;;;;;;;12.18;8.73;;;13.00;99.90;;;12.03;94.21;101659.34;4134911;28;20061;-68
2021/06/23 02:43:38;;;;;;;16.58;8.45;;;13.00;99.90;;;12.23;94.23;101663.59;4134830;28;20112;-68
2021/06/23 02:45:39;;;;;;;14.13;8.73;;;13.00;99.90;;;12.29;93.97;101662.19;4134808;28;20049;-68
2021/06/23 02:47:40;;;;;;;11.35;7.95;;;13.00;99.90;;;12.23;93.78;101660.94;4135930;28;20030;-68
2021/06/23 02:49:41;;;;;;;10.40;8.10;;;13.00;99.90;;;12.28;94.32;101653.41;4134896;28;20030;-68
2021/06/23 02:51:43;;;;;;;12.75;8.32;;;13.00;99.90;;;12.10;94.12;101660.41;4134844;28;20109;-68
2021/06/23 02:53:49;;;;;;;12.60;8.30;;;13.00;99.90;;;12.18;93.83;101658.72;4135631;28;20034;-68
2021/06/23 02:55:51;;;;;;;11.85;8.20;;;13.00;99.90;;;12.32;93.19;101656.59;4134969;28;20125;-68
2021/06/23 02:57:53;;;;;;;12.07;7.75;;;12.90;99.90;;;12.38;93.66;101656.84;4135114;28;20027;-68
2021/06/23 02:59:54;;;;;;;14.45;7.72;;;13.00;99.90;;;12.39;92.39;101666.47;4134814;28;20026;-68
2021/06/23 03:01:56;;;;;;;12.55;7.60;;;13.00;99.90;;;12.33;92.10;101661.75;4118431;28;20518;-68
2021/06/23 03:03:57;;;;;;;13.23;7.70;;;13.00;99.90;;;12.30;92.17;101666.50;4134788;28;20041;-68
2021/06/23 03:06:03;;;;;;;10.95;7.30;;;13.00;99.90;;;12.22;92.19;101667.19;4134745;28;20027;-68
2021/06/23 03:08:04;;;;;;;12.68;7.32;;;13.00;99.90;;;12.28;92.59;101679.00;4134422;28;20030;-68
2021/06/23 03:10:09;;;;;;;11.85;7.20;;;12.90;99.90;;;12.16;92.68;101673.06;4134622;28;20026;-68
2021/06/23 03:12:15;;;;;;;14.80;7.88;;;13.00;99.90;;;12.18;92.81;101677.22;4134682;28;20042;-68
2021/06/23 03:14:16;;;;;;;13.60;7.35;;;13.00;99.90;;;12.31;92.51;101678.72;4134748;28;20034;-68
2021/06/23 03:16:16;;;;;;;13.45;6.95;;;13.00;99.90;;;12.26;92.71;101673.88;4135831;28;20042;-68
2021/06/23 03:18:18;;;;;;;15.30;7.10;;;13.00;99.90;;;12.00;92.08;101660.47;4135713;28;20401;-68
2021/06/23 03:20:18;;;;;;;11.90;6.40;;;12.90;99.90;;;12.20;92.06;101680.59;4134676;28;20062;-68
2021/06/23 03:22:19;;;;;;;10.60;6.70;;;12.90;99.90;;;12.15;92.20;101682.84;4135756;28;20066;-68
2021/06/23 03:24:21;;;;;;;10.55;7.00;;;12.90;99.90;;;12.16;92.46;101673.06;4135378;28;20031;-68
2021/06/23 03:26:24;;;;;;;12.77;6.70;;;12.90;99.90;;;12.21;91.79;101676.13;4167136;28;20032;-68
2021/06/23 03:28:25;;;;;;;9.23;5.85;;;12.90;99.90;;;12.17;91.88;101680.03;4134385;28;20050;-68
2021/06/23 03:30:27;;;;;;;12.50;6.75;;;13.00;99.90;;;12.23;92.04;101671.53;4134527;28;20023;-68
2021/06/23 03:32:28;;;;;;;16.95;6.57;;;13.00;99.90;;;12.29;91.53;101684.19;4134336;28;20027;-68
2021/06/23 03:34:30;;;;;;;14.90;6.72;;;13.00;99.90;;;12.32;91.14;101677.75;4135739;28;20033;-68
2021/06/23 03:36:31;;;;;;;9.73;5.97;;;13.00;99.90;;;12.38;91.36;101680.66;4134154;28;20049;-68
2021/06/23 03:38:32;;;;;;;10.70;6.32;;;13.00;99.90;;;12.43;91.50;101681.06;4134176;28;20030;-68
2021/06/23 03:40:33;;;;;;;10.70;5.30;;;13.10;99.90;;;12.50;90.90;101682.16;4134400;28;20551;-68
2021/06/23 03:42:34;;;;;;;8.45;6.10;;;13.10;99.90;;;12.43;91.00;101675.78;4134231;28;20035;-68
2021/06/23 03:44:35;;;;;;;15.77;6.15;;;13.10;99.90;;;12.49;90.85;101684.94;4134135;28;20038;-68
2021/06/23 03:46:36;;;;;;;12.90;5.97;;;13.10;99.90;;;12.34;91.25;101687.22;4134443;28;20023;-68
2021/06/23 03:48:37;;;;;;;10.55;5.70;;;13.20;99.90;;;12.27;91.85;101685.31;4137842;28;20026;-68
2021/06/23 03:50:39;;;;;;;9.57;5.43;;;13.10;99.90;;;12.21;92.21;101687.53;4137470;28;20552;-68
2021/06/23 03:52:40;;;;;;;14.45;6.30;;;13.20;99.90;;;12.17;91.99;101687.97;4136995;28;20082;-68
2021/06/23 03:54:41;;;;;;;10.93;5.40;;;13.10;99.90;;;12.24;91.63;101690.88;4137481;28;20037;-68
2021/06/23 03:56:42;;;;;;;12.85;6.88;;;13.00;99.90;;;12.16;91.68;101684.50;4137416;28;20034;-68
2021/06/23 03:58:43;;;;;;;9.63;5.35;;;13.10;99.90;;;12.10;91.52;101679.78;4137397;28;20034;-68
2021/06/23 04:00:44;;;;;;;15.32;5.78;;;13.00;99.90;;;12.21;91.49;101698.09;4137046;28;20505;-68
2021/06/23 04:02:46;;;;;;;12.43;5.75;;;13.00;99.90;;;12.13;91.74;101684.78;4138487;28;20089;-68
2021/06/23 04:04:48;;;;;;;13.10;5.70;;;13.00;99.90;;;12.36;91.90;101689.75;4137281;28;20042;-68
2021/06/23 04:06:48;;;;;;;12.02;6.43;;;13.00;99.90;;;12.23;90.53;101671.53;4138367;28;20026;-68
2021/06/23 04:08:50;;;;;;;9.75;5.13;;;13.00;99.90;;;12.31;91.36;101686.66;4136727;28;20037;-68
2021/06/23 04:10:50;;;;;;;8.18;5.03;;;13.00;99.90;;;12.38;90.15;101687.78;4137176;28;20510;-68
2021/06/23 04:12:51;;;;;;;8.85;4.80;;;13.10;99.90;;;12.27;91.01;101695.88;4137299;28;20065;-68
2021/06/23 04:14:52;;;;;;;13.38;5.40;;;13.10;99.90;;;12.33;90.79;101695.31;4138342;28;20026;-68
2021/06/23 04:16:54;;;;;;;14.65;5.63;;;13.10;99.90;;;12.09;91.32;101686.06;4138165;28;20066;-68
2021/06/23 04:18:55;;;;;;;10.35;5.30;;;13.10;99.90;;;12.38;91.60;101698.34;4137124;28;20468;-68
2021/06/23 04:20:56;;;;;;;12.52;6.07;;;13.00;99.90;;;12.31;90.08;101694.59;4138273;28;20030;-68
2021/06/23 04:22:57;;;;;;;13.00;5.38;;;13.00;99.90;;;12.21;91.44;101684.06;4136668;28;20398;-68
2021/06/23 04:24:58;;;;;;;9.57;5.22;;;13.10;99.90;;;12.19;91.99;101686.84;4136893;28;20096;-68
2021/06/23 04:26:59;;;;;;;10.77;5.18;;;13.10;99.90;;;12.31;90.69;101702.53;4137090;28;20104;-68
2021/06/23 04:29:00;;;;;;;10.55;5.55;;;13.00;99.90;;;12.36;90.62;101706.44;4138119;28;20054;-68
2021/06/23 04:31:01;;;;;;;8.50;5.15;;;13.10;99.90;;;12.36;90.26;101698.50;4138021;28;20018;-68
2021/06/23 04:33:03;;;;;;;12.88;5.70;;;13.10;99.90;;;12.12;91.24;101688.41;4136668;28;20038;-68
2021/06/23 04:35:09;;;;;;;10.85;5.85;;;13.10;99.90;;;12.08;91.32;101694.97;4136706;28;20030;-68
2021/06/23 04:37:10;;;;;;;12.65;6.55;;;13.00;99.90;;;12.07;92.25;101689.78;4136867;28;20469;-68
2021/06/23 04:39:11;;;;;;;14.25;6.03;;;13.00;99.90;;;12.32;92.34;101704.22;4137565;28;20058;-68
2021/06/23 04:41:12;;;;;;;11.20;6.28;;;13.00;99.90;;;12.31;90.87;101692.78;4152544;28;20142;-68
2021/06/23 04:43:13;;;;;;;14.70;6.07;;;13.00;99.90;;;12.19;91.59;101694.78;4136533;28;20113;-68
2021/06/23 04:45:15;;;;;;;11.35;6.00;;;13.00;99.90;;;12.19;91.91;101705.38;4128276;28;20026;-68
2021/06/23 04:47:16;;;;;;;10.77;6.88;;;13.10;99.90;;;12.20;91.68;101707.03;4137798;28;20045;-68
2021/06/23 04:49:17;;;;;;;10.82;6.05;;;13.10;99.90;;;12.36;91.66;101709.09;4152545;28;20026;-68
2021/06/23 04:51:18;;;;;;;8.98;5.95;;;13.10;99.90;;;12.36;90.61;101706.44;4138007;28;20130;-68
2021/06/23 04:53:19;;;;;;;13.70;7.22;;;13.10;99.90;;;12.32;91.32;101714.81;4120139;28;20522;-68
2021/06/23 04:55:20;;;;;;;8.45;6.22;;;13.20;99.90;;;12.39;91.64;101719.41;4152597;28;20048;-68
2021/06/23 04:57:21;;;;;;;10.43;6.00;;;13.20;99.90;;;12.41;92.03;101708.66;4136397;28;20031;-68
2021/06/23 04:59:22;;;;;;;12.38;6.55;;;13.20;99.90;;;12.45;90.82;101723.28;4135629;28;20061;-68
2021/06/23 05:01:23;;;;;;;10.25;6.07;;;13.30;99.90;;;12.45;91.04;101724.13;4137630;28;20077;-68
2021/06/23 05:03:24;;;;;;;9.50;6.30;;;13.30;99.90;;;12.45;91.47;101721.47;4136257;28;20088;-68
2021/06/23 05:05:25;;;;;;;10.98;6.55;;;13.30;99.90;;;12.45;91.47;101725.91;4136229;28;20037;-68
2021/06/23 05:07:26;;;;;;;10.90;6.13;;;13.30;99.90;;;12.48;92.23;101721.19;4137309;28;20030;-68
2021/06/23 05:09:27;;;;;;;12.38;6.07;;;13.30;99.90;;;12.71;91.30;101732.22;4136378;28;20611;-68
2021/06/23 05:11:28;;;;;;;10.65;6.35;;;13.40;99.90;;;12.59;91.11;101721.00;4137392;28;20022;-68
2021/06/23 05:13:28;;;;;;;13.15;6.20;;;13.40;99.90;;;12.66;90.98;101731.84;4137409;28;20026;-68
2021/06/23 05:15:29;;;;;;;15.52;7.05;;;13.50;99.90;;;12.65;91.26;101730.16;4137495;28;20105;-68
2021/06/23 05:17:31;;;;;;;16.25;6.80;;;13.50;99.90;;;12.65;92.06;101732.81;4136176;28;20042;-68
2021/06/23 05:19:35;;;;;;;11.07;6.43;;;13.60;99.90;;;12.76;92.12;101724.66;4136019;28;20029;-68
2021/06/23 05:21:36;;;;;;;16.05;7.38;;;13.60;99.90;;;12.87;91.10;101731.59;4136073;28;20030;-68
2021/06/23 05:23:41;;;;;;;14.05;6.32;;;13.60;99.90;;;12.85;90.87;101729.09;4135653;28;20050;-68
2021/06/23 05:25:42;;;;;;;11.38;6.07;;;13.70;99.90;;;12.87;90.86;101737.75;4128352;28;20507;-68
2021/06/23 05:27:43;;;;;;;13.02;6.95;;;13.80;99.90;;;12.93;90.88;101734.47;4137243;28;20068;-68
2021/06/23 05:29:44;;;;;;;12.77;5.70;;;13.80;99.90;;;13.05;91.47;101737.78;4137095;28;20030;-68
2021/06/23 05:31:45;;;;;;;16.55;6.72;;;13.80;99.90;;;12.89;89.90;101724.34;4137274;28;20486;-68
2021/06/23 05:33:46;;;;;;;10.90;6.68;;;13.90;99.90;;;13.03;90.23;101742.38;4137144;28;20037;-68
2021/06/23 05:35:47;;;;;;;10.93;5.82;;;13.90;99.90;;;13.07;89.61;101736.66;4137114;28;20066;-68
2021/06/23 05:37:48;;;;;;;14.07;7.43;;;14.00;99.90;;;12.90;89.39;101732.16;4136696;28;20509;-68
2021/06/23 05:39:49;;;;;;;14.23;7.20;;;14.00;99.90;;;13.13;88.93;101740.56;4135712;28;20121;-68
2021/06/23 05:41:50;;;;;;;14.73;6.68;;;14.00;99.90;;;13.16;88.64;101738.44;4137199;28;20034;-68
2021/06/23 05:43:51;;;;;;;10.77;5.70;;;14.10;99.90;;;13.01;89.85;101739.06;4136723;28;20034;-68
2021/06/23 05:45:52;;;;;;;12.73;6.20;;;14.00;99.90;;;13.08;89.55;101730.38;4136882;28;20062;-68
2021/06/23 05:47:53;;;;;;;17.50;7.03;;;14.00;99.90;;;13.26;89.19;101733.09;4136904;28;20033;-68
2021/06/23 05:49:54;;;;;;;11.25;6.07;;;14.10;99.90;;;13.12;89.10;101737.06;4135598;28;20038;-68
2021/06/23 05:51:54;;;;;;;14.43;7.80;;;14.20;99.90;;;13.03;90.34;101745.03;4136814;28;20481;-68
2021/06/23 05:53:55;;;;;;;13.98;5.72;;;14.20;99.90;;;13.10;89.12;101736.41;4135316;28;20038;-68
2021/06/23 05:55:56;;;;;;;11.98;6.10;;;14.20;99.90;;;13.23;88.56;101736.84;4136580;28;20086;-68
2021/06/23 05:57:57;;;;;;;7.50;5.10;;;14.20;99.90;;;13.28;88.79;101742.56;4135620;28;20061;-68
2021/06/23 05:59:58;;;;;;;15.50;6.15;;;14.30;99.90;;;13.37;88.26;101753.25;4136678;28;20077;-68
2021/06/23 06:01:59;;;;;;;13.13;5.82;;;14.30;99.90;;;13.35;87.96;101744.63;4136539;28;20113;-68
2021/06/23 06:04:00;;;;;;;13.82;6.20;;;14.40;99.90;;;13.28;88.70;101747.03;4151426;28;20022;-68
2021/06/23 06:06:02;;;;;;;10.57;5.57;;;14.40;99.90;;;13.34;87.61;101748.25;4135419;28;20031;-68
2021/06/23 06:08:04;;;;;;;10.25;5.40;;;14.40;99.90;;;13.36;88.83;101748.91;4136257;28;20441;-68
2021/06/23 06:10:05;;;;;;;10.27;6.10;;;14.40;99.90;;;13.38;87.82;101731.06;4136386;28;20034;-68
2021/06/23 06:12:07;;;;;;;11.88;5.63;;;14.50;99.90;;;13.57;87.97;101752.94;4135182;28;20026;-68
2021/06/23 06:14:08;;;;;;;12.95;5.25;;;14.50;99.90;;;13.46;88.52;101758.47;4136467;28;20026;-68
2021/06/23 06:16:09;;;;;;;11.82;5.15;;;14.50;99.90;;;13.70;88.15;101758.72;4136506;28;20019;-68
2021/06/23 06:18:10;;;;;;;12.40;5.63;;;14.60;99.90;;;13.74;87.97;101754.78;4136456;28;20486;-68
2021/06/23 06:20:13;;;;;;;12.23;5.10;;;14.60;99.90;;;13.74;87.48;101756.56;4135170;28;20019;-68
2021/06/23 06:22:13;;;;;;;12.02;5.20;;;14.70;99.90;;;13.52;88.63;101759.69;4135184;28;20030;-68
2021/06/23 06:24:14;;;;;;;9.23;5.03;;;14.60;99.90;;;13.39;88.19;101760.06;4134818;28;20018;-68
2021/06/23 06:26:15;;;;;;;8.80;5.38;;;14.60;99.90;;;13.63;87.74;101768.25;4136404;28;20498;-68
2021/06/23 06:28:17;;;;;;;12.73;5.47;;;14.60;99.90;;;13.33;88.91;101771.25;4136192;28;20379;-68
2021/06/23 06:30:19;;;;;;;11.05;4.85;;;14.60;99.90;;;13.52;88.77;101765.00;4135142;28;20080;-68
2021/06/23 06:32:20;;;;;;;9.93;5.25;;;14.60;99.90;;;13.45;88.25;101758.63;4136283;28;20027;-68
2021/06/23 06:34:21;;;;;;;12.20;5.72;;;14.60;99.90;;;13.49;89.20;101760.84;4136238;28;20556;-68
2021/06/23 06:36:21;;;;;;;12.02;5.30;;;14.50;99.90;;;13.73;88.94;101770.84;4136006;28;20490;-68
2021/06/23 06:38:23;;;;;;;8.10;4.60;;;14.60;99.90;;;13.60;88.29;101771.22;4150891;28;20040;-68
2021/06/23 06:40:24;;;;;;;13.93;5.90;;;14.60;99.90;;;13.69;87.93;101780.91;4136058;28;20050;-68
2021/06/23 06:42:24;;;;;;;11.23;6.18;;;14.80;99.90;;;13.82;87.79;101776.06;4150890;28;20040;-68
2021/06/23 06:44:29;;;;;;;9.55;4.80;;;14.80;99.90;;;13.70;86.91;101776.44;4134644;28;20026;-68
2021/06/23 06:46:30;;;;;;;12.85;4.47;;;14.90;99.90;;;13.96;86.95;101774.69;4134831;28;20026;-68
2021/06/23 06:48:31;;;;;;;9.15;4.80;;;14.90;99.90;;;14.03;86.66;101773.13;4136159;28;20033;-68
2021/06/23 06:50:32;;;;;;;12.15;5.43;;;15.10;99.90;;;14.20;86.27;101776.72;4134797;28;20026;-68
2021/06/23 06:52:33;;;;;;;9.48;4.18;;;15.20;99.90;;;13.90;86.31;101769.16;4135404;28;20027;-68
2021/06/23 06:54:35;;;;;;;9.93;4.32;;;15.30;99.90;;;14.07;85.79;101770.97;4134819;28;20117;-68
2021/06/23 06:56:35;;;;;;;8.57;4.40;;;15.30;99.90;;;14.11;85.54;101770.50;4135833;28;20062;-68
2021/06/23 06:58:37;;;;;;;11.13;5.35;;;15.30;99.90;;;14.19;85.56;101765.25;4135794;28;20490;-68
2021/06/23 07:00:38;;;;;;;8.93;4.03;;;15.30;99.90;;;14.25;84.77;101780.56;4135741;28;20052;-68
2021/06/23 07:02:39;;;;;;;8.85;3.97;;;15.40;99.90;;;14.10;86.46;101773.31;4135615;28;20041;-68
2021/06/23 07:04:40;;;;;;;12.20;4.80;;;15.50;99.90;;;14.22;85.28;101782.69;4135786;28;20019;-68
2021/06/23 07:06:42;;;;;;;18.35;4.93;;;15.40;99.90;;;14.30;85.71;101780.97;4135698;28;20553;-68
2021/06/23 07:08:43;;;;;;;11.65;4.43;;;15.50;99.90;;;14.14;85.88;101783.47;4135226;28;20394;-68
2021/06/23 07:10:44;;;;;;;10.70;4.38;;;15.50;99.90;;;14.19;86.03;101775.88;4135717;28;20034;-68
2021/06/23 07:12:45;;;;;;;11.07;4.15;;;15.50;99.90;;;14.15;85.98;101758.63;4135572;28;20033;-68
2021/06/23 07:14:45;;;;;;;7.35;4.32;;;15.40;99.90;;;14.34;84.79;101770.88;4134731;28;20049;-68
2021/06/23 07:16:47;;;;;;;12.38;3.90;;;15.50;99.90;;;14.30;85.19;101770.34;4118042;28;20118;-68
2021/06/23 07:18:49;;;;;;;9.20;4.13;;;15.50;99.90;;;14.17;85.14;101775.22;4134526;28;20050;-68
2021/06/23 07:20:50;;;;;;;9.23;4.63;;;15.50;99.90;;;14.41;86.28;101782.53;4134530;28;20054;-68
2021/06/23 07:22:51;;;;;;;10.27;4.22;;;15.50;99.90;;;14.26;84.70;101770.78;4151409;28;20026;-68
2021/06/23 07:24:52;;;;;;;10.18;4.20;;;15.50;99.90;;;14.19;85.84;101790.97;4137649;28;20508;-68
2021/06/23 07:26:58;;;;;;;15.63;4.88;;;15.40;99.90;;;14.01;85.28;101774.25;4139020;28;20064;-68
2021/06/23 07:29:02;;;;;;;12.93;4.85;;;15.40;99.90;;;13.86;86.20;101789.84;4137950;28;20085;-69
2021/06/23 07:31:06;;;;;;;12.80;4.45;;;15.30;99.90;;;13.85;87.00;101791.69;4137775;28;20026;-68
2021/06/23 07:33:08;;;;;;;8.75;4.20;;;15.20;99.90;;;13.98;86.68;101793.94;4137529;28;20026;-68
2021/06/23 07:37:29;;;;;;;14.70;5.07;;;15.20;99.90;;;14.17;85.23;101782.31;4137486;28;20429;-68
2021/06/23 07:39:32;;;;;;;13.45;3.80;;;15.40;99.90;;;14.02;86.79;101775.91;4137233;28;20046;-68
2021/06/23 07:41:33;;;;;;;13.20;5.35;;;15.40;99.90;;;14.35;85.37;101793.78;4138767;28;20022;-68
2021/06/23 07:43:35;;;;;;;13.38;4.85;;;15.50;99.90;;;14.34;85.93;101803.56;4138565;28;20079;-68
2021/06/23 07:45:37;;;;;;;16.77;5.22;;;15.50;99.90;;;14.28;86.01;101795.34;4138629;28;20018;-68
2021/06/23 07:47:40;;;;;;;15.52;5.10;;;15.60;99.90;;;14.31;84.61;101803.84;4138461;28;20026;-68
2021/06/23 07:49:42;;;;;;;10.00;3.95;;;15.70;99.90;;;14.22;85.70;101796.78;4137471;28;20127;-68
2021/06/23 07:52:04;;;;;;;7.63;3.70;;;15.70;99.90;;;14.72;84.67;101804.16;4138680;28;20030;-67
2021/06/23 07:56:36;;;;;;;15.25;4.93;;;16.00;99.90;;;15.05;83.11;101808.66;4138350;28;20089;-68
2021/06/23 08:08:10;;;;;;;10.82;4.70;;;16.40;99.90;;;14.90;83.82;101783.69;4138409;28;20113;-70
2021/06/23 08:10:14;;;;;;;9.02;4.05;;;16.50;99.90;;;15.11;81.63;101778.78;4137267;28;20022;-68
2021/06/23 08:12:23;;;;;;;11.65;3.50;;;16.60;99.90;;;15.10;82.82;101805.50;4138190;28;20034;-68
2021/06/23 08:14:24;;;;;;;8.35;3.90;;;16.60;99.90;;;15.36;82.74;101808.94;4138388;28;20045;-68
2021/06/23 08:16:25;;;;;;;16.98;4.13;;;16.70;99.90;;;15.14;81.54;101804.22;4138170;28;20022;-68
2021/06/23 08:18:26;;;;;;;14.05;4.00;;;16.70;99.90;;;14.85;82.04;101789.44;4136862;28;20035;-68
2021/06/23 08:20:28;;;;;;;11.63;5.15;;;16.60;99.90;;;14.95;82.47;101802.63;4138196;28;20022;-68
2021/06/23 08:22:29;;;;;;;11.57;4.68;;;16.60;99.90;;;15.04;81.65;101808.81;4136326;28;20030;-68
2021/06/23 08:24:30;;;;;;;12.18;3.92;;;16.50;99.90;;;15.23;80.24;101803.25;4138051;28;20524;-68
2021/06/23 08:26:31;;;;;;;7.97;3.35;;;16.60;99.90;;;15.39;81.00;101797.97;4169330;28;20468;-68
2021/06/23 08:28:32;;;;;;;15.07;5.10;;;16.60;99.90;;;15.15;81.45;101816.50;4136894;28;20030;-68
2021/06/23 08:30:34;;;;;;;9.65;3.67;;;16.60;99.90;;;14.82;81.70;101796.91;4137996;28;20038;-68
2021/06/23 08:32:37;;;;;;;10.27;4.60;;;16.50;99.90;;;14.85;81.09;101793.91;4136522;28;20114;-68
2021/06/23 08:34:37;;;;;;;13.07;4.85;;;16.40;99.90;;;14.87;81.54;101802.59;4137692;28;20450;-68
2021/06/23 08:36:39;;;;;;;8.57;3.85;;;16.30;99.90;;;15.04;80.92;101804.31;4137945;28;20041;-68